createdAt,value
2019-03-26T00:00:50.477Z,90.28
2019-03-26T00:01:50.464Z,90.09
2019-03-26T00:02:50.451Z,90.85
2019-03-26T00:03:50.440Z,90.81
2019-03-26T00:04:50.426Z,91.52
2019-03-26T00:05:50.415Z,91.52
2019-03-26T00:06:50.402Z,91.89
2019-03-26T00:07:50.391Z,91.80
2019-03-26T00:08:50.381Z,91.99
2019-03-26T00:09:50.366Z,91.61
2019-03-26T00:10:50.353Z,91.80
2019-03-26T00:11:50.341Z,91.42
2019-03-26T00:12:50.328Z,91.52
2019-03-26T00:13:50.319Z,91.99
2019-03-26T00:14:50.305Z,91.80
2019-03-26T00:15:50.293Z,91.71
2019-03-26T00:16:50.280Z,91.61
2019-03-26T00:17:50.269Z,91.42
2019-03-26T00:18:50.257Z,91.99
2019-03-26T00:19:50.249Z,91.52
2019-03-26T00:20:50.234Z,91.89
2019-03-26T00:21:50.221Z,91.80
2019-03-26T00:22:50.208Z,91.71
2019-03-26T00:23:50.196Z,91.24
2019-03-26T00:24:50.189Z,91.71
2019-03-26T00:25:50.172Z,91.71
2019-03-26T00:26:50.159Z,91.33
2019-03-26T00:27:50.147Z,91.80
2019-03-26T00:28:50.133Z,91.71
2019-03-26T00:29:50.122Z,91.99
2019-03-26T00:30:50.110Z,91.89
2019-03-26T00:31:50.098Z,91.71
2019-03-26T00:32:50.086Z,91.71
2019-03-26T00:33:50.080Z,92.09
2019-03-26T00:34:50.060Z,92.37
2019-03-26T00:35:50.051Z,92.28
2019-03-26T00:36:50.036Z,91.71
2019-03-26T00:37:50.024Z,91.61
2019-03-26T00:38:50.102Z,91.80
2019-03-26T00:39:50.001Z,91.80
2019-03-26T00:40:49.989Z,91.42
2019-03-26T00:41:49.976Z,91.52
2019-03-26T00:42:49.965Z,91.80
2019-03-26T00:43:49.953Z,91.61
2019-03-26T00:44:49.939Z,91.89
2019-03-26T00:45:49.927Z,91.71
2019-03-26T00:46:49.920Z,91.52
2019-03-26T00:47:49.904Z,91.61
2019-03-26T00:48:49.891Z,91.71
2019-03-26T00:49:49.879Z,91.80
2019-03-26T00:50:49.868Z,91.61
2019-03-26T00:51:49.855Z,91.52
2019-03-26T00:52:49.846Z,92.28
2019-03-26T00:53:49.831Z,91.99
2019-03-26T00:54:49.822Z,92.28
2019-03-26T00:55:49.810Z,92.56
2019-03-26T00:56:49.795Z,92.37
2019-03-26T00:57:49.784Z,92.47
2019-03-26T00:58:49.771Z,93.41
2019-03-26T00:59:49.760Z,92.85
2019-03-26T01:00:49.835Z,92.94
2019-03-26T01:01:49.735Z,92.56
2019-03-26T01:02:49.725Z,92.28
2019-03-26T01:03:49.713Z,91.80
2019-03-26T01:04:49.700Z,92.09
2019-03-26T01:05:49.688Z,91.80
2019-03-26T01:06:49.677Z,92.47
2019-03-26T01:07:49.665Z,92.18
2019-03-26T01:08:49.652Z,91.99
2019-03-26T01:09:49.652Z,92.47
2019-03-26T01:10:49.629Z,92.18
2019-03-26T01:11:49.618Z,91.80
2019-03-26T01:12:49.605Z,91.61
2019-03-26T01:13:49.594Z,92.37
2019-03-26T01:14:49.584Z,92.04
2019-03-26T01:15:49.570Z,92.85
2019-03-26T01:16:49.561Z,92.85
2019-03-26T01:17:49.552Z,92.37
2019-03-26T01:18:49.534Z,92.33
2019-03-26T01:19:49.522Z,92.23
2019-03-26T01:20:49.510Z,91.94
2019-03-26T01:21:49.501Z,92.85
2019-03-26T01:22:49.486Z,92.37
2019-03-26T01:23:49.474Z,92.18
2019-03-26T01:24:49.461Z,92.09
2019-03-26T01:25:49.450Z,92.85
2019-03-26T01:26:49.442Z,93.41
2019-03-26T01:27:49.426Z,92.66
2019-03-26T01:28:49.415Z,92.37
2019-03-26T01:29:49.402Z,92.18
2019-03-26T01:30:49.392Z,92.09
2019-03-26T01:31:49.378Z,91.61
2019-03-26T01:32:49.365Z,91.80
2019-03-26T01:33:49.353Z,91.80
2019-03-26T01:34:49.342Z,91.24
2019-03-26T01:35:49.331Z,91.24
2019-03-26T01:36:49.318Z,90.95
2019-03-26T01:37:49.305Z,90.00
2019-03-26T01:38:49.298Z,89.81
2019-03-26T01:39:49.283Z,89.81
2019-03-26T01:40:49.269Z,90.28
2019-03-26T01:41:49.260Z,90.19
2019-03-26T01:42:49.246Z,90.38
2019-03-26T01:43:49.235Z,89.90
2019-03-26T01:44:49.222Z,89.62
2019-03-26T01:45:49.213Z,89.72
2019-03-26T01:46:49.199Z,90.00
2019-03-26T01:47:49.187Z,90.00
2019-03-26T01:48:49.176Z,89.62
2019-03-26T01:49:49.163Z,89.90
2019-03-26T01:50:49.155Z,89.81
2019-03-26T01:51:49.142Z,89.90
2019-03-26T01:52:49.128Z,89.24
2019-03-26T01:53:49.117Z,90.00
2019-03-26T01:54:49.105Z,89.81
2019-03-26T01:55:49.093Z,89.72
2019-03-26T01:56:49.083Z,89.90
2019-03-26T01:57:49.120Z,89.05
2019-03-26T01:58:49.058Z,89.05
2019-03-26T01:59:49.046Z,89.33
2019-03-26T02:00:49.034Z,88.86
2019-03-26T02:01:49.022Z,89.14
2019-03-26T02:02:49.011Z,88.76
2019-03-26T02:03:49.000Z,89.48
2019-03-26T02:04:59.349Z,89.90
2019-03-26T02:05:48.975Z,89.48
2019-03-26T02:06:48.965Z,89.86
2019-03-26T02:07:48.953Z,90.38
2019-03-26T02:08:48.939Z,90.52
2019-03-26T02:09:48.929Z,89.58
2019-03-26T02:10:48.918Z,89.10
2019-03-26T02:11:48.905Z,89.20
2019-03-26T02:12:48.915Z,89.20
2019-03-26T02:13:48.880Z,89.39
2019-03-26T02:14:48.868Z,89.86
2019-03-26T02:15:48.857Z,89.86
2019-03-26T02:16:48.844Z,90.05
2019-03-26T02:17:48.832Z,90.24
2019-03-26T02:18:48.821Z,90.14
2019-03-26T02:19:48.810Z,89.95
2019-03-26T02:20:48.797Z,90.14
2019-03-26T02:21:48.785Z,90.24
2019-03-26T02:22:48.774Z,89.76
2019-03-26T02:23:48.765Z,89.39
2019-03-26T02:24:48.754Z,88.81
2019-03-26T02:25:48.738Z,89.39
2019-03-26T02:26:48.726Z,89.95
2019-03-26T02:27:48.714Z,89.95
2019-03-26T02:28:48.707Z,89.76
2019-03-26T02:29:48.689Z,90.33
2019-03-26T02:30:48.678Z,90.24
2019-03-26T02:31:48.678Z,90.05
2019-03-26T02:32:48.655Z,90.33
2019-03-26T02:33:48.642Z,90.33
2019-03-26T02:34:48.631Z,90.33
2019-03-26T02:35:48.619Z,89.95
2019-03-26T02:36:48.610Z,90.28
2019-03-26T02:37:48.595Z,90.28
2019-03-26T02:38:48.583Z,90.09
2019-03-26T02:39:48.578Z,90.47
2019-03-26T02:40:48.558Z,91.42
2019-03-26T02:41:48.549Z,90.95
2019-03-26T02:42:48.540Z,91.04
2019-03-26T02:43:48.524Z,90.85
2019-03-26T02:44:48.511Z,91.61
2019-03-26T02:45:48.510Z,91.52
2019-03-26T02:46:48.489Z,91.33
2019-03-26T02:47:48.485Z,90.76
2019-03-26T02:48:48.465Z,90.85
2019-03-26T02:49:48.456Z,91.04
2019-03-26T02:50:48.443Z,89.81
2019-03-26T02:51:48.431Z,90.14
2019-03-26T02:52:48.423Z,90.52
2019-03-26T02:53:48.432Z,90.33
2019-03-26T02:54:48.397Z,90.05
2019-03-26T02:55:48.399Z,90.24
2019-03-26T02:56:48.371Z,90.14
2019-03-26T02:57:48.361Z,91.19
2019-03-26T02:58:48.398Z,91.38
2019-03-26T02:59:48.335Z,91.28
2019-03-26T03:00:48.323Z,91.85
2019-03-26T03:01:48.316Z,91.75
2019-03-26T03:02:48.299Z,91.00
2019-03-26T03:03:48.288Z,91.28
2019-03-26T03:04:48.276Z,91.28
2019-03-26T03:05:48.264Z,90.81
2019-03-26T03:06:48.252Z,91.94
2019-03-26T03:07:48.250Z,92.14
2019-03-26T03:08:48.237Z,92.14
2019-03-26T03:09:48.216Z,91.47
2019-03-26T03:10:48.204Z,91.56
2019-03-26T03:11:48.289Z,91.66
2019-03-26T03:12:48.180Z,91.56
2019-03-26T03:13:48.190Z,91.75
2019-03-26T03:14:48.167Z,91.66
2019-03-26T03:15:48.145Z,91.56
2019-03-26T03:16:48.135Z,91.94
2019-03-26T03:17:48.125Z,92.23
2019-03-26T03:18:48.109Z,92.23
2019-03-26T03:19:48.101Z,92.52
2019-03-26T03:20:48.083Z,92.23
2019-03-26T03:21:48.072Z,92.52
2019-03-26T03:22:48.062Z,92.33
2019-03-26T03:23:48.049Z,92.61
2019-03-26T03:24:48.036Z,92.71
2019-03-26T03:25:48.026Z,92.71
2019-03-26T03:26:48.011Z,92.99
2019-03-26T03:27:48.000Z,93.37
2019-03-26T03:28:47.990Z,93.18
2019-03-26T03:29:48.025Z,92.80
2019-03-26T03:30:47.966Z,93.08
2019-03-26T03:31:47.952Z,92.99
2019-03-26T03:32:47.938Z,93.56
2019-03-26T03:33:47.929Z,93.37
2019-03-26T03:34:47.918Z,93.75
2019-03-26T03:35:52.529Z,93.75
2019-03-26T03:36:47.890Z,93.56
2019-03-26T03:37:47.886Z,93.94
2019-03-26T03:38:47.867Z,93.18
2019-03-26T03:39:48.305Z,93.37
2019-03-26T03:40:47.846Z,93.65
2019-03-26T03:41:47.837Z,93.89
2019-03-26T03:42:47.818Z,93.37
2019-03-26T03:43:47.817Z,93.37
2019-03-26T03:44:47.798Z,92.80
2019-03-26T03:45:47.799Z,92.99
2019-03-26T03:46:47.773Z,93.13
2019-03-26T03:47:47.757Z,93.23
2019-03-26T03:48:47.746Z,93.18
2019-03-26T03:49:47.734Z,93.04
2019-03-26T03:50:47.722Z,93.51
2019-03-26T03:51:47.710Z,93.32
2019-03-26T03:52:47.697Z,93.41
2019-03-26T03:53:47.684Z,93.41
2019-03-26T03:54:47.678Z,92.85
2019-03-26T03:55:47.662Z,92.94
2019-03-26T03:56:47.654Z,93.51
2019-03-26T03:57:47.640Z,92.94
2019-03-26T03:58:47.630Z,93.13
2019-03-26T03:59:47.612Z,92.56
2019-03-26T04:00:47.601Z,92.37
2019-03-26T04:01:47.588Z,92.09
2019-03-26T04:02:47.578Z,92.18
2019-03-26T04:03:47.567Z,92.75
2019-03-26T04:04:47.553Z,92.23
2019-03-26T04:05:47.542Z,92.37
2019-03-26T04:06:47.532Z,92.33
2019-03-26T04:07:47.517Z,92.14
2019-03-26T04:08:47.562Z,92.14
2019-03-26T04:09:47.492Z,91.94
2019-03-26T04:10:47.481Z,91.94
2019-03-26T04:11:47.470Z,91.85
2019-03-26T04:12:47.464Z,92.04
2019-03-26T04:13:47.444Z,92.23
2019-03-26T04:14:47.436Z,92.80
2019-03-26T04:15:47.422Z,92.33
2019-03-26T04:16:47.413Z,92.33
2019-03-26T04:17:47.396Z,92.04
2019-03-26T04:18:47.397Z,92.18
2019-03-26T04:19:47.373Z,92.42
2019-03-26T04:20:47.364Z,92.52
2019-03-26T04:21:47.350Z,91.85
2019-03-26T04:22:47.335Z,92.14
2019-03-26T04:23:47.333Z,92.61
2019-03-26T04:24:47.311Z,92.47
2019-03-26T04:25:47.301Z,92.04
2019-03-26T04:26:47.301Z,91.85
2019-03-26T04:27:47.291Z,91.56
2019-03-26T04:28:47.279Z,92.04
2019-03-26T04:29:47.256Z,91.66
2019-03-26T04:30:47.243Z,91.09
2019-03-26T04:31:47.229Z,91.28
2019-03-26T04:32:47.222Z,91.61
2019-03-26T04:33:47.202Z,91.66
2019-03-26T04:34:47.189Z,91.33
2019-03-26T04:35:47.178Z,90.85
2019-03-26T04:36:47.169Z,90.81
2019-03-26T04:37:47.154Z,90.62
2019-03-26T04:38:47.141Z,90.81
2019-03-26T04:39:47.130Z,90.71
2019-03-26T04:40:47.117Z,90.90
2019-03-26T04:41:47.114Z,91.28
2019-03-26T04:42:47.109Z,92.23
2019-03-26T04:43:47.086Z,91.85
2019-03-26T04:44:47.069Z,91.56
2019-03-26T04:45:47.056Z,92.33
2019-03-26T04:46:47.044Z,93.37
2019-03-26T04:47:47.032Z,94.13
2019-03-26T04:48:47.019Z,95.74
2019-03-26T04:49:47.007Z,96.41
2019-03-26T04:50:46.994Z,97.55
2019-03-26T04:51:46.981Z,98.49
2019-03-26T04:52:46.968Z,99.06
2019-03-26T04:53:46.957Z,99.99
2019-03-26T04:54:46.947Z,99.99
2019-03-26T04:55:46.931Z,99.99
2019-03-26T04:56:46.918Z,99.99
2019-03-26T04:57:46.906Z,99.99
2019-03-26T04:58:46.893Z,99.99
2019-03-26T04:59:46.883Z,99.99
2019-03-26T05:00:46.867Z,99.99
2019-03-26T05:01:46.855Z,99.99
2019-03-26T05:02:46.843Z,99.99
2019-03-26T05:03:46.833Z,99.99
2019-03-26T05:04:46.817Z,99.99
2019-03-26T05:05:46.805Z,99.99
2019-03-26T05:06:46.791Z,99.99
2019-03-26T05:07:46.779Z,99.99
2019-03-26T05:08:46.766Z,99.99
2019-03-26T05:09:46.754Z,99.99
2019-03-26T05:10:49.141Z,99.99
2019-03-26T05:11:46.730Z,99.99
2019-03-26T05:12:46.716Z,99.99
2019-03-26T05:13:46.703Z,99.99
2019-03-26T05:14:46.694Z,99.99
2019-03-26T05:15:46.678Z,99.99
2019-03-26T05:16:46.666Z,99.99
2019-03-26T05:17:46.653Z,99.99
2019-03-26T05:18:46.641Z,99.99
2019-03-26T05:19:46.629Z,99.99
2019-03-26T05:20:46.617Z,99.99
2019-03-26T05:21:46.603Z,99.99
2019-03-26T05:22:46.591Z,99.99
2019-03-26T05:23:46.578Z,99.99
2019-03-26T05:24:46.565Z,99.99
2019-03-26T05:25:46.553Z,99.99
2019-03-26T05:26:46.541Z,99.99
2019-03-26T05:27:46.531Z,99.99
2019-03-26T05:28:46.516Z,99.99
2019-03-26T05:29:46.503Z,99.99
2019-03-26T05:30:46.493Z,99.99
2019-03-26T05:31:46.480Z,99.99
2019-03-26T05:32:46.466Z,99.99
2019-03-26T05:33:46.454Z,99.99
2019-03-26T05:34:46.443Z,99.99
2019-03-26T05:35:46.435Z,99.99
2019-03-26T05:36:51.512Z,99.99
2019-03-26T05:37:46.407Z,99.99
2019-03-26T05:38:46.404Z,99.99
2019-03-26T05:39:46.381Z,99.99
2019-03-26T05:40:46.368Z,99.99
2019-03-26T05:41:46.357Z,99.99
2019-03-26T05:42:46.346Z,99.99
2019-03-26T05:43:46.332Z,99.99
2019-03-26T05:44:46.318Z,99.99
2019-03-26T05:45:46.307Z,99.99
2019-03-26T05:46:46.295Z,99.99
2019-03-26T05:47:46.282Z,99.99
2019-03-26T05:48:46.270Z,99.99
2019-03-26T05:49:46.258Z,99.99
2019-03-26T05:50:46.246Z,99.99
2019-03-26T05:51:46.234Z,99.99
2019-03-26T05:52:46.220Z,99.99
2019-03-26T05:53:46.209Z,99.99
2019-03-26T05:54:46.197Z,99.99
2019-03-26T05:55:46.186Z,99.99
2019-03-26T05:56:46.172Z,99.99
2019-03-26T05:57:46.160Z,99.99
2019-03-26T05:58:46.204Z,99.99
2019-03-26T05:59:46.138Z,99.99
2019-03-26T06:00:46.124Z,99.99
2019-03-26T06:01:46.111Z,99.99
2019-03-26T06:02:46.099Z,99.99
2019-03-26T06:03:46.087Z,99.99
2019-03-26T06:04:46.081Z,99.99
2019-03-26T06:05:46.061Z,99.99
2019-03-26T06:06:46.051Z,99.82
2019-03-26T06:07:46.037Z,99.63
2019-03-26T06:08:46.028Z,99.54
2019-03-26T06:09:46.013Z,99.26
2019-03-26T06:10:46.001Z,98.97
2019-03-26T06:11:45.989Z,99.06
2019-03-26T06:12:45.976Z,99.63
2019-03-26T06:13:45.964Z,99.35
2019-03-26T06:14:45.952Z,99.68
2019-03-26T06:15:45.940Z,99.16
2019-03-26T06:16:45.928Z,98.49
2019-03-26T06:17:45.916Z,98.30
2019-03-26T06:18:45.905Z,98.35
2019-03-26T06:19:45.892Z,98.16
2019-03-26T06:20:45.879Z,97.88
2019-03-26T06:21:45.868Z,97.17
2019-03-26T06:22:45.855Z,95.03
2019-03-26T06:23:45.844Z,95.07
2019-03-26T06:24:45.831Z,93.94
2019-03-26T06:25:45.831Z,94.13
2019-03-26T06:26:45.807Z,94.65
2019-03-26T06:27:45.795Z,94.46
2019-03-26T06:28:45.782Z,93.56
2019-03-26T06:29:45.773Z,93.89
2019-03-26T06:30:45.759Z,93.23
2019-03-26T06:31:45.747Z,93.04
2019-03-26T06:32:45.735Z,94.18
2019-03-26T06:33:45.722Z,93.23
2019-03-26T06:34:45.712Z,92.28
2019-03-26T06:35:45.699Z,91.80
2019-03-26T06:36:45.685Z,91.33
2019-03-26T06:37:45.674Z,90.85
2019-03-26T06:38:45.684Z,91.24
2019-03-26T06:39:45.650Z,90.85
2019-03-26T06:40:45.637Z,91.71
2019-03-26T06:41:45.626Z,92.28
2019-03-26T06:42:45.616Z,90.85
2019-03-26T06:43:45.602Z,89.72
2019-03-26T06:44:45.590Z,90.09
2019-03-26T06:45:45.583Z,90.47
2019-03-26T06:46:45.566Z,90.09
2019-03-26T06:47:45.555Z,90.57
2019-03-26T06:48:45.542Z,90.57
2019-03-26T06:49:45.530Z,90.66
2019-03-26T06:50:45.519Z,91.33
2019-03-26T06:51:45.507Z,89.81
2019-03-26T06:52:45.495Z,89.05
2019-03-26T06:53:45.483Z,88.86
2019-03-26T06:54:45.471Z,89.05
2019-03-26T06:55:45.460Z,88.10
2019-03-26T06:56:45.452Z,87.62
2019-03-26T06:57:45.436Z,86.87
2019-03-26T06:58:45.425Z,86.49
2019-03-26T06:59:45.413Z,87.62
2019-03-26T07:00:45.404Z,86.20
2019-03-26T07:01:45.390Z,85.82
2019-03-26T07:02:45.378Z,85.63
2019-03-26T07:03:45.369Z,84.40
2019-03-26T07:04:45.354Z,84.97
2019-03-26T07:05:45.343Z,85.72
2019-03-26T07:06:45.334Z,85.44
2019-03-26T07:07:45.320Z,86.11
2019-03-26T07:08:45.308Z,85.53
2019-03-26T07:09:45.299Z,85.72
2019-03-26T07:10:45.285Z,85.44
2019-03-26T07:11:45.281Z,84.40
2019-03-26T07:12:45.265Z,83.83
2019-03-26T07:13:45.252Z,83.73
2019-03-26T07:14:45.238Z,83.45
2019-03-26T07:15:45.227Z,83.64
2019-03-26T07:16:45.215Z,84.21
2019-03-26T07:17:45.217Z,83.83
2019-03-26T07:18:45.191Z,83.59
2019-03-26T07:19:45.180Z,83.87
2019-03-26T07:20:45.169Z,82.45
2019-03-26T07:21:49.911Z,81.30
2019-03-26T07:22:45.146Z,81.40
2019-03-26T07:23:45.135Z,81.21
2019-03-26T07:24:45.123Z,80.79
2019-03-26T07:25:45.111Z,81.02
2019-03-26T07:26:45.100Z,81.30
2019-03-26T07:27:45.091Z,80.45
2019-03-26T07:28:45.077Z,80.55
2019-03-26T07:29:45.066Z,80.64
2019-03-26T07:30:45.059Z,80.35
2019-03-26T07:31:45.044Z,80.74
2019-03-26T07:32:45.032Z,81.30
2019-03-26T07:33:45.024Z,80.64
2019-03-26T07:34:45.011Z,81.30
2019-03-26T07:35:45.001Z,81.02
2019-03-26T07:36:44.998Z,81.30
2019-03-26T07:37:45.893Z,81.40
2019-03-26T07:38:44.968Z,80.07
2019-03-26T07:39:44.959Z,78.83
2019-03-26T07:40:44.947Z,79.31
2019-03-26T07:41:44.934Z,79.31
2019-03-26T07:42:44.921Z,79.41
2019-03-26T07:43:44.910Z,79.27
2019-03-26T07:44:45.492Z,80.22
2019-03-26T07:45:44.889Z,80.69
2019-03-26T07:46:44.876Z,81.74
2019-03-26T07:47:44.863Z,81.36
2019-03-26T07:48:44.852Z,81.74
2019-03-26T07:49:44.840Z,81.84
2019-03-26T07:50:44.828Z,82.78
2019-03-26T07:51:44.817Z,82.59
2019-03-26T07:52:44.804Z,82.59
2019-03-26T07:53:44.795Z,82.88
2019-03-26T07:54:44.781Z,82.50
2019-03-26T07:55:44.770Z,82.50
2019-03-26T07:56:44.758Z,83.26
2019-03-26T07:57:44.746Z,82.59
2019-03-26T07:58:44.784Z,81.17
2019-03-26T07:59:44.722Z,81.65
2019-03-26T08:00:44.712Z,82.31
2019-03-26T08:01:44.699Z,81.40
2019-03-26T08:02:44.687Z,82.45
2019-03-26T08:03:44.677Z,81.30
2019-03-26T08:04:44.664Z,81.49
2019-03-26T08:05:44.652Z,80.64
2019-03-26T08:06:44.642Z,80.35
2019-03-26T08:07:57.534Z,80.26
2019-03-26T08:08:44.619Z,80.35
2019-03-26T08:09:44.609Z,79.69
2019-03-26T08:10:44.601Z,80.30
2019-03-26T08:11:44.586Z,80.35
2019-03-26T08:12:44.576Z,80.83
2019-03-26T08:13:44.581Z,79.54
2019-03-26T08:14:44.553Z,79.54
2019-03-26T08:15:44.560Z,79.44
2019-03-26T08:16:44.531Z,80.30
2019-03-26T08:17:45.443Z,77.83
2019-03-26T08:18:44.511Z,79.06
2019-03-26T08:19:44.501Z,77.92
2019-03-26T08:20:44.489Z,77.55
2019-03-26T08:21:44.479Z,77.64
2019-03-26T08:22:44.471Z,76.88
2019-03-26T08:23:44.459Z,75.49
2019-03-26T08:24:44.448Z,73.59
2019-03-26T08:25:44.441Z,71.59
2019-03-26T08:26:44.474Z,69.98
2019-03-26T08:27:44.422Z,68.96
2019-03-26T08:28:44.412Z,68.77
2019-03-26T08:29:44.405Z,68.90
2019-03-26T08:30:44.398Z,65.86
2019-03-26T08:31:44.393Z,64.47
2019-03-26T08:32:44.404Z,64.47
2019-03-26T08:33:44.381Z,64.43
2019-03-26T08:34:46.747Z,64.43
2019-03-26T08:35:44.370Z,65.48
2019-03-26T08:36:44.364Z,64.53
2019-03-26T08:37:44.360Z,64.59
2019-03-26T08:38:44.354Z,65.06
2019-03-26T08:39:44.356Z,65.92
2019-03-26T08:40:44.342Z,66.11
2019-03-26T08:41:44.337Z,65.86
2019-03-26T08:42:44.336Z,65.95
2019-03-26T08:43:44.331Z,65.19
2019-03-26T08:44:44.325Z,64.53
2019-03-26T08:45:44.317Z,63.70
2019-03-26T08:46:46.312Z,62.94
2019-03-26T08:47:44.310Z,62.02
2019-03-26T08:48:44.306Z,62.30
2019-03-26T08:49:44.303Z,62.30
2019-03-26T08:50:44.301Z,61.45
2019-03-26T08:51:44.299Z,61.35
2019-03-26T08:52:44.305Z,62.08
2019-03-26T08:53:44.294Z,63.80
2019-03-26T08:54:44.287Z,64.56
2019-03-26T08:55:44.284Z,63.70
2019-03-26T08:56:44.279Z,63.13
2019-03-26T08:57:44.281Z,63.60
2019-03-26T08:58:44.271Z,64.81
2019-03-26T08:59:44.267Z,65.38
2019-03-26T09:00:44.260Z,65.86
2019-03-26T09:01:44.258Z,65.58
2019-03-26T09:02:44.250Z,64.34
2019-03-26T09:03:44.251Z,65.51
2019-03-26T09:04:44.244Z,63.54
2019-03-26T09:05:44.237Z,63.07
2019-03-26T09:06:44.233Z,61.83
2019-03-26T09:07:44.230Z,61.04
2019-03-26T09:08:44.233Z,61.67
2019-03-26T09:09:44.222Z,63.29
2019-03-26T09:10:51.663Z,64.15
2019-03-26T09:11:44.216Z,65.51
2019-03-26T09:12:44.211Z,64.37
2019-03-26T09:13:44.206Z,64.37
2019-03-26T09:14:44.206Z,66.27
2019-03-26T09:15:44.200Z,65.23
2019-03-26T09:16:44.195Z,64.31
2019-03-26T09:17:44.837Z,63.32
2019-03-26T09:18:44.188Z,63.60
2019-03-26T09:19:44.183Z,64.53
2019-03-26T09:20:44.177Z,65.48
2019-03-26T09:21:44.173Z,65.95
2019-03-26T09:22:44.167Z,66.97
2019-03-26T09:23:44.165Z,68.11
2019-03-26T09:24:44.171Z,68.68
2019-03-26T09:25:44.149Z,68.77
2019-03-26T09:26:44.141Z,69.15
2019-03-26T09:27:44.135Z,69.73
2019-03-26T09:28:44.128Z,69.54
2019-03-26T09:29:44.120Z,68.59
2019-03-26T09:30:44.113Z,69.35
2019-03-26T09:31:44.164Z,69.38
2019-03-26T09:32:44.099Z,68.43
2019-03-26T09:33:44.090Z,68.30
2019-03-26T09:34:44.083Z,68.59
2019-03-26T09:35:44.075Z,69.54
2019-03-26T09:36:44.068Z,69.31
2019-03-26T09:37:44.058Z,69.31
2019-03-26T09:38:44.050Z,71.22
2019-03-26T09:39:44.042Z,71.02
2019-03-26T09:40:44.033Z,71.31
2019-03-26T09:41:44.024Z,70.74
2019-03-26T09:42:44.017Z,69.79
2019-03-26T09:43:44.007Z,69.82
2019-03-26T09:44:43.997Z,71.34
2019-03-26T09:45:43.991Z,70.87
2019-03-26T09:46:43.980Z,69.10
2019-03-26T09:47:43.972Z,69.38
2019-03-26T09:48:43.962Z,69.57
2019-03-26T09:49:43.955Z,68.81
2019-03-26T09:50:43.945Z,69.10
2019-03-26T09:51:43.937Z,68.62
2019-03-26T09:52:43.928Z,67.73
2019-03-26T09:53:43.919Z,68.96
2019-03-26T09:54:43.912Z,69.35
2019-03-26T09:55:43.905Z,70.49
2019-03-26T09:56:43.893Z,71.25
2019-03-26T09:57:43.884Z,71.72
2019-03-26T09:58:43.876Z,71.72
2019-03-26T09:59:43.866Z,72.30
2019-03-26T10:00:43.927Z,71.78
2019-03-26T10:01:43.848Z,71.12
2019-03-26T10:02:43.838Z,70.74
2019-03-26T10:03:43.829Z,71.02
2019-03-26T10:04:43.821Z,72.07
2019-03-26T10:05:43.810Z,72.01
2019-03-26T10:06:43.802Z,70.87
2019-03-26T10:07:43.795Z,69.82
2019-03-26T10:08:52.360Z,70.87
2019-03-26T10:09:43.773Z,70.01
2019-03-26T10:10:43.766Z,70.39
2019-03-26T10:11:43.760Z,70.90
2019-03-26T10:12:43.752Z,71.00
2019-03-26T10:13:43.735Z,68.40
2019-03-26T10:14:43.727Z,68.77
2019-03-26T10:15:43.718Z,70.20
2019-03-26T10:16:43.709Z,70.87
2019-03-26T10:17:43.700Z,71.72
2019-03-26T10:18:43.690Z,71.22
2019-03-26T10:19:43.684Z,71.02
2019-03-26T10:20:43.672Z,72.35
2019-03-26T10:21:43.700Z,72.83
2019-03-26T10:22:43.656Z,74.20
2019-03-26T10:23:43.644Z,72.26
2019-03-26T10:24:43.634Z,72.11
2019-03-26T10:25:43.625Z,71.78
2019-03-26T10:26:43.615Z,71.72
2019-03-26T10:27:43.606Z,71.25
2019-03-26T10:28:43.599Z,70.01
2019-03-26T10:29:43.586Z,70.20
2019-03-26T10:30:43.577Z,71.25
2019-03-26T10:31:43.568Z,70.39
2019-03-26T10:32:43.558Z,69.73
2019-03-26T10:33:43.550Z,68.87
2019-03-26T10:34:43.540Z,69.92
2019-03-26T10:35:43.531Z,69.15
2019-03-26T10:36:43.539Z,68.24
2019-03-26T10:37:43.513Z,69.10
2019-03-26T10:38:43.505Z,68.52
2019-03-26T10:39:43.494Z,68.15
2019-03-26T10:40:43.485Z,66.62
2019-03-26T10:41:43.477Z,65.95
2019-03-26T10:42:43.468Z,65.58
2019-03-26T10:43:43.460Z,65.38
2019-03-26T10:44:43.451Z,65.10
2019-03-26T10:45:43.442Z,65.38
2019-03-26T10:46:44.696Z,65.23
2019-03-26T10:47:43.427Z,65.23
2019-03-26T10:48:43.416Z,64.62
2019-03-26T10:49:43.411Z,64.72
2019-03-26T10:50:43.400Z,65.89
2019-03-26T10:51:43.394Z,65.19
2019-03-26T10:52:43.382Z,64.62
2019-03-26T10:53:43.375Z,65.95
2019-03-26T10:54:43.365Z,65.19
2019-03-26T10:55:43.357Z,65.58
2019-03-26T10:56:43.348Z,65.95
2019-03-26T10:57:43.340Z,66.14
2019-03-26T10:58:43.333Z,66.14
2019-03-26T10:59:43.322Z,66.43
2019-03-26T11:00:43.312Z,68.33
2019-03-26T11:01:43.304Z,68.62
2019-03-26T11:02:43.295Z,68.33
2019-03-26T11:03:43.286Z,66.24
2019-03-26T11:04:43.277Z,65.38
2019-03-26T11:05:43.271Z,65.16
2019-03-26T11:06:43.260Z,66.11
2019-03-26T11:07:43.253Z,67.35
2019-03-26T11:08:45.160Z,67.44
2019-03-26T11:09:43.235Z,68.11
2019-03-26T11:10:43.224Z,68.21
2019-03-26T11:11:43.214Z,67.35
2019-03-26T11:12:43.203Z,67.54
2019-03-26T11:13:43.194Z,67.82
2019-03-26T11:14:43.185Z,68.21
2019-03-26T11:15:43.176Z,68.84
2019-03-26T11:16:43.165Z,70.17
2019-03-26T11:17:43.156Z,68.55
2019-03-26T11:18:43.147Z,69.21
2019-03-26T11:19:46.178Z,69.60
2019-03-26T11:20:43.125Z,69.60
2019-03-26T11:21:43.116Z,69.69
2019-03-26T11:22:43.106Z,69.12
2019-03-26T11:23:43.103Z,69.79
2019-03-26T11:24:43.085Z,70.26
2019-03-26T11:25:43.075Z,69.82
2019-03-26T11:26:43.066Z,68.74
2019-03-26T11:27:43.062Z,68.74
2019-03-26T11:28:43.044Z,68.74
2019-03-26T11:29:43.084Z,68.87
2019-03-26T11:30:43.025Z,68.93
2019-03-26T11:31:43.065Z,70.10
2019-03-26T11:32:43.006Z,69.35
2019-03-26T11:33:42.994Z,69.35
2019-03-26T11:34:42.985Z,69.35
2019-03-26T11:35:42.975Z,69.57
2019-03-26T11:36:42.964Z,69.10
2019-03-26T11:37:42.955Z,68.62
2019-03-26T11:38:42.946Z,67.29
2019-03-26T11:39:42.936Z,66.94
2019-03-26T11:40:42.928Z,66.56
2019-03-26T11:41:42.918Z,66.14
2019-03-26T11:42:42.909Z,65.95
2019-03-26T11:43:42.901Z,66.05
2019-03-26T11:44:42.893Z,66.85
2019-03-26T11:45:42.885Z,66.05
2019-03-26T11:46:42.874Z,66.14
2019-03-26T11:47:42.865Z,66.08
2019-03-26T11:48:42.860Z,65.99
2019-03-26T11:49:42.847Z,65.70
2019-03-26T11:50:42.839Z,66.18
2019-03-26T11:51:42.834Z,65.99
2019-03-26T11:52:42.821Z,65.51
2019-03-26T11:53:42.813Z,65.32
2019-03-26T11:54:42.805Z,65.61
2019-03-26T11:55:42.799Z,65.42
2019-03-26T11:56:42.788Z,64.65
2019-03-26T11:57:42.781Z,65.23
2019-03-26T11:58:42.775Z,65.61
2019-03-26T11:59:42.766Z,65.92
2019-03-26T12:00:42.754Z,65.32
2019-03-26T12:01:42.747Z,65.51
2019-03-26T12:02:42.739Z,65.42
2019-03-26T12:03:42.762Z,65.70
2019-03-26T12:04:42.724Z,67.51
2019-03-26T12:05:42.714Z,67.41
2019-03-26T12:06:42.706Z,67.89
2019-03-26T12:07:42.998Z,66.08
2019-03-26T12:08:42.690Z,67.13
2019-03-26T12:09:46.507Z,67.32
2019-03-26T12:10:42.676Z,67.38
2019-03-26T12:11:42.664Z,67.86
2019-03-26T12:12:42.655Z,69.32
2019-03-26T12:13:42.647Z,69.04
2019-03-26T12:14:42.639Z,68.84
2019-03-26T12:15:42.633Z,68.62
2019-03-26T12:16:42.625Z,68.05
2019-03-26T12:17:42.613Z,68.62
2019-03-26T12:18:42.603Z,70.24
2019-03-26T12:19:42.594Z,70.24
2019-03-26T12:20:42.585Z,69.29
2019-03-26T12:21:42.575Z,69.76
2019-03-26T12:22:42.567Z,70.43
2019-03-26T12:23:42.562Z,69.57
2019-03-26T12:24:42.548Z,68.81
2019-03-26T12:25:42.539Z,68.46
2019-03-26T12:26:42.530Z,68.24
2019-03-26T12:27:42.521Z,67.70
2019-03-26T12:28:42.511Z,68.46
2019-03-26T12:29:42.503Z,67.99
2019-03-26T12:30:42.495Z,67.32
2019-03-26T12:31:42.484Z,66.94
2019-03-26T12:32:42.480Z,66.18
2019-03-26T12:33:42.468Z,66.75
2019-03-26T12:34:42.457Z,67.22
2019-03-26T12:35:42.449Z,67.03
2019-03-26T12:36:42.441Z,67.32
2019-03-26T12:37:42.430Z,67.99
2019-03-26T12:38:42.422Z,67.03
2019-03-26T12:39:44.245Z,67.41
2019-03-26T12:40:42.404Z,68.94
2019-03-26T12:41:42.399Z,67.70
2019-03-26T12:42:42.387Z,67.03
2019-03-26T12:43:42.378Z,67.41
2019-03-26T12:44:42.368Z,66.94
2019-03-26T12:45:42.360Z,67.89
2019-03-26T12:46:42.351Z,67.89
2019-03-26T12:47:42.343Z,68.75
2019-03-26T12:48:42.333Z,68.84
2019-03-26T12:49:42.333Z,68.84
2019-03-26T12:50:42.316Z,69.13
2019-03-26T12:51:42.308Z,68.94
2019-03-26T12:52:42.297Z,67.61